Terminal Aerodrome Forecast
Issued by NWS Springfield, MO

Home | Current Version | Previous Version | Text Only | Print | Product List | Glossary On
Versions: 1 2 3 4 5 6 7 8 9 10 11 12 13 14 15 16 17 18 19 20 21 22 23 24 25 26
000
FTUS43 KSGF 201120
TAFSGF
TAF
KSGF 201120Z 2012/2112 21015KT P6SM OVC015 WS020/22050KT
     FM201600 19014G22KT P6SM BKN010 WS020/21045KT
     FM202000 19013KT P6SM BKN040 WS020/21045KT
     FM202300 17012G20KT P6SM SCT200
     FM210700 17012KT P6SM BKN035
     FM211100 18010G18KT P6SM BKN008=

USA.gov is the U.S. government's official web portal to all federal, state and local government web resources and services.